createdAt,value
2022-07-29T00:01:05.094Z,23.57
2022-07-29T00:03:32.552Z,23.64
2022-07-29T00:06:00.792Z,23.65
2022-07-29T00:08:29.822Z,23.63
2022-07-29T00:10:57.235Z,23.63
2022-07-29T00:13:31.846Z,23.58
2022-07-29T00:16:04.424Z,23.53
2022-07-29T00:18:32.754Z,23.48
2022-07-29T00:21:00.469Z,23.49
2022-07-29T00:23:30.649Z,23.51
2022-07-29T00:25:58.189Z,23.52
2022-07-29T00:28:25.615Z,23.51
2022-07-29T00:30:53.015Z,23.44
2022-07-29T00:33:20.436Z,23.56
2022-07-29T00:35:47.934Z,23.52
2022-07-29T00:38:16.761Z,23.62
2022-07-29T00:40:46.054Z,23.52
2022-07-29T00:43:14.403Z,23.45
2022-07-29T00:45:41.820Z,23.49
2022-07-29T00:48:09.247Z,23.45
2022-07-29T00:50:37.450Z,23.27
2022-07-29T00:53:07.058Z,23.31
2022-07-29T00:55:34.105Z,23.48
2022-07-29T00:58:03.101Z,23.34
2022-07-29T01:00:30.955Z,23.35
2022-07-29T01:02:58.782Z,23.35
2022-07-29T01:05:48.065Z,23.63
2022-07-29T01:08:17.135Z,23.68
2022-07-29T01:10:46.134Z,24.21
2022-07-29T01:13:15.842Z,25.59
2022-07-29T01:15:49.192Z,25.70
2022-07-29T01:18:22.112Z,25.62
2022-07-29T01:21:07.091Z,24.34
2022-07-29T01:23:49.250Z,24.16
2022-07-29T01:26:53.571Z,23.91
2022-07-29T01:29:36.092Z,23.32
2022-07-29T01:32:09.853Z,23.05
2022-07-29T01:35:03.134Z,22.98
2022-07-29T01:37:39.149Z,23.39
2022-07-29T01:40:12.945Z,22.99
2022-07-29T01:42:45.185Z,22.86
2022-07-29T01:45:18.151Z,22.81
2022-07-29T01:47:49.728Z,22.90
2022-07-29T01:50:19.531Z,22.90
2022-07-29T01:52:53.700Z,22.88
2022-07-29T01:55:23.446Z,22.79
2022-07-29T01:57:50.890Z,22.66
2022-07-29T02:00:20.083Z,22.70
2022-07-29T02:02:49.436Z,22.86
2022-07-29T02:05:20.128Z,22.59
2022-07-29T02:07:49.552Z,22.63
2022-07-29T02:10:19.871Z,22.84
2022-07-29T02:12:55.288Z,22.84
2022-07-29T02:15:26.753Z,22.82
2022-07-29T02:17:59.549Z,22.66
2022-07-29T02:20:28.907Z,22.80
2022-07-29T02:22:58.431Z,23.01
2022-07-29T02:25:26.198Z,22.97
2022-07-29T02:28:06.424Z,23.00
2022-07-29T02:30:37.770Z,22.70
2022-07-29T02:33:06.922Z,22.79
2022-07-29T02:35:35.130Z,23.16
2022-07-29T02:38:04.369Z,22.71
2022-07-29T02:40:31.796Z,22.76
2022-07-29T02:43:00.504Z,22.75
2022-07-29T02:45:28.779Z,22.70
2022-07-29T02:48:00.889Z,22.80
2022-07-29T02:50:33.943Z,22.83
2022-07-29T02:53:06.640Z,22.91
2022-07-29T02:55:38.087Z,22.86
2022-07-29T02:58:14.590Z,23.13
2022-07-29T03:00:43.976Z,22.99
2022-07-29T03:03:16.147Z,22.92
2022-07-29T03:05:43.569Z,22.83
2022-07-29T03:08:13.190Z,22.84
2022-07-29T03:10:43.725Z,22.81
2022-07-29T03:13:12.546Z,22.78
2022-07-29T03:15:40.400Z,22.80
2022-07-29T03:18:08.442Z,23.02
2022-07-29T03:20:38.916Z,22.74
2022-07-29T03:23:06.314Z,22.75
2022-07-29T03:25:33.878Z,22.96
2022-07-29T03:28:01.351Z,22.91
2022-07-29T03:30:28.770Z,22.93
2022-07-29T03:32:56.638Z,22.89
2022-07-29T03:35:26.355Z,22.66
2022-07-29T03:37:55.241Z,22.75
2022-07-29T03:40:27.677Z,22.82
2022-07-29T03:42:56.680Z,22.68
2022-07-29T03:45:25.502Z,22.76
2022-07-29T03:48:00.696Z,22.87
2022-07-29T03:50:29.791Z,22.74
2022-07-29T03:52:59.313Z,22.98
2022-07-29T03:55:27.667Z,23.00
2022-07-29T03:57:56.820Z,22.92
2022-07-29T04:00:26.703Z,22.82
2022-07-29T04:02:54.345Z,22.93
2022-07-29T04:05:21.838Z,22.73
2022-07-29T04:07:49.524Z,22.70
2022-07-29T04:10:30.037Z,22.77
2022-07-29T04:12:59.932Z,22.79
2022-07-29T04:15:31.425Z,22.49
2022-07-29T04:17:59.596Z,22.56
2022-07-29T04:20:27.012Z,22.51
2022-07-29T04:22:54.403Z,22.50
2022-07-29T04:25:23.353Z,22.53
2022-07-29T04:27:51.254Z,22.49
2022-07-29T04:30:18.743Z,22.34
2022-07-29T04:32:46.112Z,22.38
2022-07-29T04:35:13.514Z,22.44
2022-07-29T04:37:40.901Z,22.61
2022-07-29T04:40:09.404Z,22.65
2022-07-29T04:42:46.536Z,22.65
2022-07-29T04:45:15.307Z,22.76
2022-07-29T04:47:43.573Z,22.64
2022-07-29T04:50:11.085Z,22.56
2022-07-29T04:52:38.672Z,22.68
2022-07-29T04:55:07.296Z,22.79
2022-07-29T04:57:34.682Z,22.88
2022-07-29T05:00:04.442Z,22.83
2022-07-29T05:02:32.125Z,22.99
2022-07-29T05:04:59.593Z,22.93
2022-07-29T05:07:27.043Z,22.73
2022-07-29T05:09:54.608Z,22.83
2022-07-29T05:12:21.979Z,22.79
2022-07-29T05:14:49.367Z,22.87
2022-07-29T05:17:18.175Z,22.89
2022-07-29T05:19:45.615Z,22.69
2022-07-29T05:22:12.958Z,22.86
2022-07-29T05:24:40.373Z,22.94
2022-07-29T05:27:07.778Z,22.78
2022-07-29T05:29:44.539Z,22.75
2022-07-29T05:32:13.602Z,22.70
2022-07-29T05:34:50.700Z,22.88
2022-07-29T05:37:20.000Z,22.94
2022-07-29T05:39:50.610Z,22.99
2022-07-29T05:42:24.650Z,23.16
2022-07-29T05:44:52.053Z,23.12
2022-07-29T05:47:19.661Z,23.18
2022-07-29T05:49:48.671Z,23.27
2022-07-29T05:52:16.338Z,23.24
2022-07-29T05:54:43.962Z,23.13
2022-07-29T05:57:17.325Z,23.31
2022-07-29T05:59:44.793Z,23.10
2022-07-29T06:02:12.353Z,22.94
2022-07-29T06:04:39.828Z,23.03
2022-07-29T06:07:08.798Z,23.11
2022-07-29T06:09:36.573Z,23.09
2022-07-29T06:12:04.971Z,23.10
2022-07-29T06:14:32.423Z,23.29
2022-07-29T06:16:59.885Z,23.12
2022-07-29T06:19:27.278Z,23.10
2022-07-29T06:21:54.814Z,23.21
2022-07-29T06:24:23.661Z,23.27
2022-07-29T06:26:51.061Z,23.24
2022-07-29T06:29:18.517Z,23.40
2022-07-29T06:31:45.977Z,23.38
2022-07-29T06:34:13.678Z,23.51
2022-07-29T06:36:41.631Z,23.48
2022-07-29T06:39:09.946Z,23.38
2022-07-29T06:41:40.605Z,23.38
2022-07-29T06:44:10.593Z,23.38
2022-07-29T06:46:38.068Z,23.33
2022-07-29T06:49:05.864Z,23.40
2022-07-29T06:51:33.410Z,23.39
2022-07-29T06:54:02.759Z,23.32
2022-07-29T06:56:31.670Z,23.34
2022-07-29T06:59:01.615Z,23.21
2022-07-29T07:01:29.121Z,23.10
2022-07-29T07:03:56.717Z,23.24
2022-07-29T07:06:24.253Z,23.23
2022-07-29T07:08:51.741Z,23.45
2022-07-29T07:11:19.395Z,23.35
2022-07-29T07:13:46.910Z,23.17
2022-07-29T07:16:16.218Z,23.34
2022-07-29T07:18:43.774Z,23.31
2022-07-29T07:21:11.314Z,23.28
2022-07-29T07:23:39.001Z,23.40
2022-07-29T07:26:06.517Z,23.34
2022-07-29T07:28:34.032Z,23.55
2022-07-29T07:31:01.537Z,23.75
2022-07-29T07:33:30.470Z,23.64
2022-07-29T07:35:57.991Z,23.63
2022-07-29T07:38:25.441Z,23.54
2022-07-29T07:40:52.972Z,23.51
2022-07-29T07:43:20.426Z,23.54
2022-07-29T07:45:50.120Z,23.48
2022-07-29T07:48:17.704Z,23.58
2022-07-29T07:50:46.886Z,23.67
2022-07-29T07:53:14.524Z,23.49
2022-07-29T07:56:09.387Z,23.52
2022-07-29T07:58:32.236Z,23.50
2022-07-29T08:00:59.778Z,23.39
2022-07-29T08:03:27.352Z,23.45
2022-07-29T08:05:56.454Z,23.48
2022-07-29T08:08:24.018Z,23.48
2022-07-29T08:10:51.545Z,23.63
2022-07-29T08:13:19.687Z,23.63
2022-07-29T08:15:47.263Z,23.51
2022-07-29T08:18:14.806Z,23.60
2022-07-29T08:20:42.325Z,23.69
2022-07-29T08:23:11.255Z,23.63
2022-07-29T08:25:39.004Z,23.60
2022-07-29T08:28:07.834Z,24.07
2022-07-29T08:30:35.712Z,24.11
2022-07-29T08:33:03.720Z,23.69
2022-07-29T08:35:35.538Z,23.76
2022-07-29T08:38:04.506Z,23.68
2022-07-29T08:40:33.529Z,23.63
2022-07-29T08:43:06.477Z,23.67
2022-07-29T08:45:44.817Z,23.52
2022-07-29T08:48:17.419Z,23.47
2022-07-29T08:50:46.289Z,23.59
2022-07-29T08:53:16.004Z,23.56
2022-07-29T08:55:46.860Z,23.69
2022-07-29T08:58:15.780Z,23.60
2022-07-29T09:00:46.153Z,23.62
2022-07-29T09:03:18.250Z,23.62
2022-07-29T09:05:48.251Z,23.68
2022-07-29T09:08:16.937Z,23.74
2022-07-29T09:10:46.088Z,23.81
2022-07-29T09:13:13.630Z,23.86
2022-07-29T09:15:41.540Z,23.77
2022-07-29T09:18:19.483Z,23.76
2022-07-29T09:20:57.963Z,23.82
2022-07-29T09:23:25.462Z,24.02
2022-07-29T09:25:54.568Z,23.81
2022-07-29T09:28:22.215Z,23.85
2022-07-29T09:30:53.822Z,23.92
2022-07-29T09:33:22.080Z,23.95
2022-07-29T09:36:00.383Z,23.90
2022-07-29T09:38:29.449Z,23.86
2022-07-29T09:41:05.506Z,23.89
2022-07-29T09:43:35.207Z,23.94
2022-07-29T09:46:12.659Z,23.87
2022-07-29T09:48:40.598Z,23.81
2022-07-29T09:51:21.424Z,23.88
2022-07-29T09:53:50.774Z,24.04
2022-07-29T09:56:39.034Z,24.02
2022-07-29T09:59:07.338Z,24.15
2022-07-29T10:01:34.931Z,24.03
2022-07-29T10:04:02.693Z,24.00
2022-07-29T10:06:30.325Z,24.03
2022-07-29T10:09:08.574Z,24.09
2022-07-29T10:11:49.546Z,23.98
2022-07-29T10:14:18.063Z,23.91
2022-07-29T10:16:45.933Z,24.08
2022-07-29T10:19:14.689Z,24.08
2022-07-29T10:21:42.322Z,24.16
2022-07-29T10:24:14.648Z,24.23
2022-07-29T10:26:44.854Z,24.19
2022-07-29T10:29:12.422Z,24.37
2022-07-29T10:31:49.099Z,24.24
2022-07-29T10:34:29.493Z,24.31
2022-07-29T10:37:08.925Z,24.18
2022-07-29T10:39:49.866Z,24.10
2022-07-29T10:42:33.443Z,24.13
2022-07-29T10:45:04.947Z,24.06
2022-07-29T10:47:35.418Z,24.07
2022-07-29T10:50:05.898Z,23.99
2022-07-29T10:52:57.168Z,23.95
2022-07-29T10:55:36.302Z,24.04
2022-07-29T10:58:19.180Z,24.17
2022-07-29T11:00:49.549Z,24.12
2022-07-29T11:03:49.707Z,24.15
2022-07-29T11:06:27.038Z,24.15
2022-07-29T11:09:17.717Z,24.14
2022-07-29T11:11:51.541Z,23.94
2022-07-29T11:14:56.965Z,24.31
2022-07-29T11:17:26.080Z,24.39
2022-07-29T11:20:32.831Z,24.28
2022-07-29T11:23:00.461Z,24.29
2022-07-29T11:28:25.087Z,24.19
2022-07-29T11:30:55.211Z,24.16
2022-07-29T11:36:28.196Z,24.11
2022-07-29T11:42:44.449Z,24.11
2022-07-29T11:45:44.312Z,24.20
2022-07-29T11:48:28.982Z,24.32
2022-07-29T11:50:50.619Z,24.19
2022-07-29T11:53:18.806Z,24.09
2022-07-29T11:55:51.095Z,24.21
2022-07-29T11:58:25.058Z,24.34
2022-07-29T12:00:55.687Z,24.32
2022-07-29T12:06:17.428Z,24.34
2022-07-29T12:07:01.291Z,24.18
2022-07-29T12:08:45.897Z,24.39
2022-07-29T12:11:21.155Z,24.33
2022-07-29T12:13:49.802Z,24.17
2022-07-29T12:16:26.068Z,24.23
2022-07-29T12:19:03.058Z,24.29
2022-07-29T12:21:30.984Z,24.32
2022-07-29T12:24:05.685Z,24.20
2022-07-29T12:26:37.244Z,24.21
2022-07-29T12:29:11.344Z,24.31
2022-07-29T12:31:45.334Z,24.51
2022-07-29T12:34:16.896Z,24.34
2022-07-29T12:36:44.783Z,24.39
2022-07-29T12:39:12.697Z,24.29
2022-07-29T12:41:40.198Z,24.23
2022-07-29T12:44:07.740Z,24.38
2022-07-29T12:46:35.196Z,24.34
2022-07-29T12:49:04.111Z,24.18
2022-07-29T12:51:34.547Z,24.21
2022-07-29T12:54:08.006Z,24.28
2022-07-29T12:56:44.087Z,24.25
2022-07-29T12:59:17.503Z,24.43
2022-07-29T13:01:45.479Z,24.42
2022-07-29T13:04:25.628Z,24.43
2022-07-29T13:07:01.932Z,24.37
2022-07-29T13:09:39.326Z,24.32
2022-07-29T13:12:09.013Z,24.29
2022-07-29T13:14:37.095Z,24.33
2022-07-29T13:17:07.670Z,24.30
2022-07-29T13:19:39.321Z,24.33
2022-07-29T13:22:08.630Z,24.45
2022-07-29T13:24:47.267Z,24.57
2022-07-29T13:27:15.586Z,24.71
2022-07-29T13:29:43.043Z,24.50
2022-07-29T13:32:10.500Z,24.59
2022-07-29T13:34:38.035Z,24.48
2022-07-29T13:37:05.661Z,24.24
2022-07-29T13:39:34.553Z,24.41
2022-07-29T13:42:02.749Z,24.43
2022-07-29T13:44:30.230Z,24.23
2022-07-29T13:46:57.683Z,24.47
2022-07-29T13:49:25.100Z,24.27
2022-07-29T13:51:52.556Z,24.49
2022-07-29T13:54:19.946Z,24.62
2022-07-29T13:56:48.836Z,24.52
2022-07-29T13:59:16.239Z,24.51
2022-07-29T14:01:44.114Z,24.48
2022-07-29T14:04:13.023Z,24.49
2022-07-29T14:06:40.656Z,24.44
2022-07-29T14:09:08.717Z,24.45
2022-07-29T14:11:36.414Z,24.49
2022-07-29T14:14:05.567Z,24.56
2022-07-29T14:16:33.001Z,24.41
2022-07-29T14:19:01.132Z,24.37
2022-07-29T14:21:28.688Z,24.33
2022-07-29T14:23:58.109Z,24.46
2022-07-29T14:26:25.792Z,24.37
2022-07-29T14:28:54.982Z,24.19
2022-07-29T14:31:23.942Z,24.34
2022-07-29T14:33:51.430Z,24.35
2022-07-29T14:36:18.867Z,24.58
2022-07-29T14:38:46.252Z,24.58
2022-07-29T14:41:14.982Z,24.64
2022-07-29T14:43:42.418Z,24.65
2022-07-29T14:46:09.995Z,24.58
2022-07-29T14:48:39.043Z,24.56
2022-07-29T14:51:06.494Z,24.63
2022-07-29T14:53:33.919Z,24.60
2022-07-29T14:56:20.872Z,24.64
2022-07-29T14:58:50.154Z,24.56
2022-07-29T15:01:19.295Z,24.66
2022-07-29T15:03:48.386Z,24.63
2022-07-29T15:06:15.929Z,24.82
2022-07-29T15:08:43.502Z,24.70
2022-07-29T15:11:11.016Z,24.57
2022-07-29T15:13:38.846Z,24.52
2022-07-29T15:16:07.247Z,24.63
2022-07-29T15:18:34.795Z,24.55
2022-07-29T15:21:03.767Z,24.61
2022-07-29T15:23:31.332Z,24.53
2022-07-29T15:25:58.740Z,24.51
2022-07-29T15:28:26.206Z,24.49
2022-07-29T15:30:53.574Z,24.59
2022-07-29T15:33:20.978Z,24.62
2022-07-29T15:35:48.404Z,24.85
2022-07-29T15:38:17.579Z,24.74
2022-07-29T15:40:45.166Z,24.84
2022-07-29T15:43:12.645Z,24.84
2022-07-29T15:45:42.048Z,24.67
2022-07-29T15:48:14.522Z,24.68
2022-07-29T15:50:42.387Z,24.60
2022-07-29T15:53:14.529Z,24.59
2022-07-29T15:55:43.341Z,24.71
2022-07-29T15:58:12.014Z,24.69
2022-07-29T16:00:39.700Z,24.84
2022-07-29T16:03:07.162Z,24.86
2022-07-29T16:05:34.679Z,24.90
2022-07-29T16:08:02.132Z,24.77
2022-07-29T16:10:29.636Z,24.94
2022-07-29T16:12:58.564Z,24.80
2022-07-29T16:15:26.317Z,24.66
2022-07-29T16:17:53.694Z,24.62
2022-07-29T16:20:21.380Z,24.63
2022-07-29T16:22:50.115Z,24.60
2022-07-29T16:25:17.732Z,24.64
2022-07-29T16:27:45.231Z,24.74
2022-07-29T16:30:14.476Z,24.70
2022-07-29T16:32:42.004Z,24.82
2022-07-29T16:35:09.982Z,24.71
2022-07-29T16:37:37.442Z,24.81
2022-07-29T16:40:06.570Z,24.62
2022-07-29T16:42:46.748Z,24.78
2022-07-29T16:45:16.716Z,24.60
2022-07-29T16:47:45.926Z,24.68
2022-07-29T16:50:13.330Z,24.61
2022-07-29T16:52:41.014Z,24.68
2022-07-29T16:55:08.807Z,24.62
2022-07-29T16:57:36.212Z,24.60
2022-07-29T17:00:04.422Z,24.64
2022-07-29T17:02:33.220Z,24.59
2022-07-29T17:05:00.597Z,24.51
2022-07-29T17:07:29.824Z,24.48
2022-07-29T17:10:00.674Z,24.45
2022-07-29T17:12:31.161Z,24.41
2022-07-29T17:14:58.825Z,24.27
2022-07-29T17:17:38.990Z,24.27
2022-07-29T17:20:17.619Z,24.25
2022-07-29T17:22:45.175Z,24.15
2022-07-29T17:25:12.675Z,24.16
2022-07-29T17:27:48.765Z,24.15
2022-07-29T17:30:16.358Z,24.18
2022-07-29T17:32:43.828Z,24.11
2022-07-29T17:35:11.307Z,24.10
2022-07-29T17:37:40.216Z,24.05
2022-07-29T17:40:09.056Z,24.13
2022-07-29T17:42:36.572Z,24.14
2022-07-29T17:45:04.596Z,24.18
2022-07-29T17:47:32.051Z,24.06
2022-07-29T17:49:59.511Z,24.11
2022-07-29T17:52:26.964Z,24.02
2022-07-29T17:54:55.777Z,24.01
2022-07-29T17:57:23.178Z,24.03
2022-07-29T17:59:50.728Z,23.98
2022-07-29T18:02:18.261Z,23.95
2022-07-29T18:04:45.868Z,23.92
2022-07-29T18:07:18.094Z,23.92
2022-07-29T18:09:45.694Z,23.92
2022-07-29T18:12:14.683Z,23.94
2022-07-29T18:14:42.328Z,24.02
2022-07-29T18:17:09.710Z,23.93
2022-07-29T18:19:37.095Z,23.91
2022-07-29T18:22:05.075Z,23.95
2022-07-29T18:24:33.204Z,23.95
2022-07-29T18:27:00.967Z,23.93
2022-07-29T18:29:30.101Z,23.95
2022-07-29T18:31:57.605Z,23.98
2022-07-29T18:34:25.026Z,23.94
2022-07-29T18:36:52.488Z,23.87
2022-07-29T18:39:21.236Z,23.93
2022-07-29T18:41:51.009Z,23.93
2022-07-29T18:44:19.504Z,23.91
2022-07-29T18:46:51.688Z,23.98
2022-07-29T18:49:19.642Z,23.91
2022-07-29T18:51:47.239Z,23.96
2022-07-29T18:54:14.980Z,23.79
2022-07-29T18:56:42.335Z,23.86
2022-07-29T18:59:09.769Z,23.74
2022-07-29T19:01:37.341Z,23.74
2022-07-29T19:04:06.301Z,23.83
2022-07-29T19:06:33.739Z,23.83
2022-07-29T19:09:01.242Z,23.90
2022-07-29T19:11:28.683Z,23.74
2022-07-29T19:13:56.068Z,23.78
2022-07-29T19:16:23.533Z,23.75
2022-07-29T19:18:50.991Z,23.60
2022-07-29T19:21:19.955Z,23.69
2022-07-29T19:24:05.895Z,23.81
2022-07-29T19:26:35.179Z,23.70
2022-07-29T19:29:02.625Z,23.77
2022-07-29T19:31:30.566Z,23.61
2022-07-29T19:33:58.020Z,23.67
2022-07-29T19:36:26.860Z,23.68
2022-07-29T19:38:54.258Z,23.73
2022-07-29T19:41:21.649Z,23.50
2022-07-29T19:43:50.864Z,23.62
2022-07-29T19:46:20.567Z,23.63
2022-07-29T19:48:48.159Z,23.62
2022-07-29T19:51:15.594Z,23.52
2022-07-29T19:53:44.628Z,23.54
2022-07-29T19:56:12.043Z,23.58
2022-07-29T19:58:39.416Z,23.59
2022-07-29T20:01:10.254Z,24.02
2022-07-29T20:03:37.959Z,24.20
2022-07-29T20:06:05.612Z,24.16
2022-07-29T20:08:33.005Z,24.23
2022-07-29T20:11:02.139Z,24.18
2022-07-29T20:13:29.555Z,24.23
2022-07-29T20:15:57.010Z,24.25
2022-07-29T20:18:24.384Z,24.31
2022-07-29T20:20:52.038Z,24.36
2022-07-29T20:23:19.599Z,24.44
2022-07-29T20:25:47.019Z,24.25
2022-07-29T20:28:15.840Z,24.35
2022-07-29T20:30:43.227Z,24.20
2022-07-29T20:33:10.769Z,24.24
2022-07-29T20:35:38.146Z,24.15
2022-07-29T20:38:05.531Z,24.28
2022-07-29T20:40:32.938Z,24.32
2022-07-29T20:43:00.338Z,24.35
2022-07-29T20:45:29.151Z,24.52
2022-07-29T20:47:56.622Z,24.35
2022-07-29T20:50:24.362Z,24.37
2022-07-29T20:52:52.568Z,24.34
2022-07-29T20:55:20.407Z,24.33
2022-07-29T20:57:47.797Z,24.19
2022-07-29T21:00:15.559Z,24.25
2022-07-29T21:02:44.496Z,24.04
2022-07-29T21:05:11.961Z,24.25
2022-07-29T21:07:39.358Z,24.28
2022-07-29T21:10:07.519Z,24.27
2022-07-29T21:12:34.932Z,24.40
2022-07-29T21:15:02.324Z,24.44
2022-07-29T21:17:29.697Z,24.42
2022-07-29T21:19:58.487Z,24.56
2022-07-29T21:22:25.882Z,24.52
2022-07-29T21:24:53.275Z,24.56
2022-07-29T21:27:21.737Z,24.47
2022-07-29T21:29:49.887Z,24.49
2022-07-29T21:32:27.623Z,24.50
2022-07-29T21:34:59.077Z,24.38
2022-07-29T21:37:26.476Z,24.23
2022-07-29T21:39:53.854Z,23.91
2022-07-29T21:42:21.314Z,23.81
2022-07-29T21:44:48.871Z,23.76
2022-07-29T21:47:16.262Z,23.84
2022-07-29T21:49:43.764Z,23.71
2022-07-29T21:52:14.162Z,23.84
2022-07-29T21:54:42.386Z,23.86
2022-07-29T21:57:09.914Z,23.83
2022-07-29T21:59:37.315Z,23.88
2022-07-29T22:02:04.709Z,23.75
2022-07-29T22:04:32.389Z,23.80
2022-07-29T22:07:00.022Z,23.57
2022-07-29T22:09:29.075Z,23.60
2022-07-29T22:11:56.450Z,23.64
2022-07-29T22:14:23.928Z,23.86
2022-07-29T22:16:52.992Z,23.68
2022-07-29T22:19:27.519Z,23.59
2022-07-29T22:21:55.045Z,23.74
2022-07-29T22:24:22.453Z,23.63
2022-07-29T22:26:51.277Z,23.70
2022-07-29T22:29:18.699Z,23.78
2022-07-29T22:31:46.106Z,23.56
2022-07-29T22:34:13.586Z,23.74
2022-07-29T22:36:41.080Z,23.61
2022-07-29T22:39:08.481Z,23.69
2022-07-29T22:41:35.931Z,23.70
2022-07-29T22:44:05.051Z,23.56
2022-07-29T22:46:33.544Z,23.74
2022-07-29T22:49:01.190Z,23.59
2022-07-29T22:51:28.599Z,23.65
2022-07-29T22:53:55.969Z,23.62
2022-07-29T22:56:23.700Z,23.56
2022-07-29T22:58:51.180Z,23.56
2022-07-29T23:01:35.824Z,23.74
2022-07-29T23:04:05.895Z,23.70
2022-07-29T23:06:36.060Z,23.65
2022-07-29T23:09:03.489Z,23.54
2022-07-29T23:11:30.899Z,23.69
2022-07-29T23:13:58.499Z,23.78
2022-07-29T23:16:27.393Z,23.70
2022-07-29T23:18:55.569Z,23.78
2022-07-29T23:21:22.994Z,23.72
2022-07-29T23:23:50.876Z,23.66
2022-07-29T23:26:18.359Z,23.68
2022-07-29T23:28:46.006Z,23.59
2022-07-29T23:31:13.875Z,23.48
2022-07-29T23:33:42.703Z,23.57
2022-07-29T23:36:10.226Z,23.48
2022-07-29T23:38:39.181Z,23.47
2022-07-29T23:41:06.658Z,23.38
2022-07-29T23:43:34.047Z,23.37
2022-07-29T23:46:01.475Z,23.51
2022-07-29T23:48:28.878Z,23.38
2022-07-29T23:50:57.745Z,23.44
2022-07-29T23:53:25.135Z,23.36
2022-07-29T23:55:52.516Z,23.10
2022-07-29T23:58:19.967Z,23.32
